YIF weather

St Augustin Airport
St-Augustin, Quebec, Canada

Public forecast

Using degrees Celsius for public forecast. Weather courtesy of forecast.io.

Closest aviation weather report (METAR) to St Augustin Airport

Closest report is Lourdes de Blanc Sablon Airport, 57.0 nm (105.5 km) ENE. Retrieved 2020/08/03 11:00 UTC (34 minutes ago):

CYBX 031100Z 23006KT 3SM BR OVC004 16/16 A2988 RMK ST8 SLP120 DENSITY ALT 400FT

Closest aviation forecast (TAF) to St Augustin Airport

Closest forecast is Lourdes de Blanc Sablon Airport, 57.0 nm (105.5 km) ENE. Retrieved 2020/08/03 08:00 UTC (4 hours ago):

TAF CYBX 030738Z 0308/0320 24008KT 3SM BR OVC004 TEMPO 0308/0311 P6SM NSW OVC008 BECMG 0311/0313 P6SM NSW SCT008 SCT150 FM031400 23012G22KT P6SM BKN120 RMK NXT FCST BY 031400Z